sensor_id;sensor_type;location;lat;lon;timestamp;pressure;altitude;pressure_sealevel;temperature;humidity
67015;BME280;1033;52.560;13.374;2023-02-28T00:02:39;102618.84;;;1.42;76.97
67015;BME280;1033;52.560;13.374;2023-02-28T00:05:15;102622.06;;;1.47;76.98
67015;BME280;1033;52.560;13.374;2023-02-28T00:08:13;102621.91;;;1.36;77.04
67015;BME280;1033;52.560;13.374;2023-02-28T00:10:49;102622.75;;;1.36;77.47
67015;BME280;1033;52.560;13.374;2023-02-28T00:13:22;102622.19;;;1.31;77.50
67015;BME280;1033;52.560;13.374;2023-02-28T00:16:00;102632.44;;;1.24;77.68
67015;BME280;1033;52.560;13.374;2023-02-28T00:18:36;102627.84;;;1.26;77.86
67015;BME280;1033;52.560;13.374;2023-02-28T00:21:08;102617.72;;;1.31;77.70
67015;BME280;1033;52.560;13.374;2023-02-28T00:23:42;102618.19;;;1.38;77.22
67015;BME280;1033;52.560;13.374;2023-02-28T00:26:15;102625.97;;;1.41;77.76
67015;BME280;1033;52.560;13.374;2023-02-28T00:28:51;102628.41;;;1.31;77.68
67015;BME280;1033;52.560;13.374;2023-02-28T00:31:24;102628.00;;;1.38;77.75
67015;BME280;1033;52.560;13.374;2023-02-28T00:33:58;102633.13;;;1.41;77.72
67015;BME280;1033;52.560;13.374;2023-02-28T00:36:32;102632.00;;;1.45;77.66
67015;BME280;1033;52.560;13.374;2023-02-28T00:39:16;102626.50;;;1.34;77.47
67015;BME280;1033;52.560;13.374;2023-02-28T00:41:49;102633.25;;;1.39;77.86
67015;BME280;1033;52.560;13.374;2023-02-28T00:44:19;102636.66;;;1.41;77.71
67015;BME280;1033;52.560;13.374;2023-02-28T00:46:55;102630.38;;;1.42;77.65
67015;BME280;1033;52.560;13.374;2023-02-28T00:49:28;102632.72;;;1.47;77.47
67015;BME280;1033;52.560;13.374;2023-02-28T00:52:05;102635.06;;;1.39;77.87
67015;BME280;1033;52.560;13.374;2023-02-28T00:54:41;102628.34;;;1.46;77.78
67015;BME280;1033;52.560;13.374;2023-02-28T00:57:11;102629.13;;;1.48;77.50
67015;BME280;1033;52.560;13.374;2023-02-28T00:59:42;102632.09;;;1.43;77.64
67015;BME280;1033;52.560;13.374;2023-02-28T01:02:15;102639.75;;;1.35;78.24
67015;BME280;1033;52.560;13.374;2023-02-28T01:04:50;102631.75;;;1.35;78.46
67015;BME280;1033;52.560;13.374;2023-02-28T01:07:22;102626.97;;;1.40;77.71
67015;BME280;1033;52.560;13.374;2023-02-28T01:09:58;102624.00;;;1.45;77.48
67015;BME280;1033;52.560;13.374;2023-02-28T01:12:31;102637.13;;;1.48;77.05
67015;BME280;1033;52.560;13.374;2023-02-28T01:15:03;102629.13;;;1.48;76.93
67015;BME280;1033;52.560;13.374;2023-02-28T01:17:37;102632.94;;;1.44;77.46
67015;BME280;1033;52.560;13.374;2023-02-28T01:20:11;102627.41;;;1.47;77.17
67015;BME280;1033;52.560;13.374;2023-02-28T01:22:42;102625.69;;;1.46;77.03
67015;BME280;1033;52.560;13.374;2023-02-28T01:25:16;102620.53;;;1.30;77.77
67015;BME280;1033;52.560;13.374;2023-02-28T01:27:52;102621.94;;;1.21;77.82
67015;BME280;1033;52.560;13.374;2023-02-28T01:30:23;102620.34;;;1.19;77.95
67015;BME280;1033;52.560;13.374;2023-02-28T01:32:55;102618.38;;;1.08;78.73
67015;BME280;1033;52.560;13.374;2023-02-28T01:35:31;102617.25;;;0.98;79.22
67015;BME280;1033;52.560;13.374;2023-02-28T01:38:02;102610.63;;;0.91;79.32
67015;BME280;1033;52.560;13.374;2023-02-28T01:40:51;102613.09;;;0.80;79.76
67015;BME280;1033;52.560;13.374;2023-02-28T01:43:25;102612.16;;;0.81;80.38
67015;BME280;1033;52.560;13.374;2023-02-28T01:45:58;102613.13;;;0.66;80.33
67015;BME280;1033;52.560;13.374;2023-02-28T01:48:32;102610.09;;;0.58;81.12
67015;BME280;1033;52.560;13.374;2023-02-28T01:51:19;102607.78;;;0.66;81.39
67015;BME280;1033;52.560;13.374;2023-02-28T01:53:56;102610.66;;;0.77;80.54
67015;BME280;1033;52.560;13.374;2023-02-28T01:56:35;102613.66;;;0.85;80.11
67015;BME280;1033;52.560;13.374;2023-02-28T01:59:23;102611.94;;;0.84;80.01
67015;BME280;1033;52.560;13.374;2023-02-28T02:01:59;102612.34;;;0.78;80.69
67015;BME280;1033;52.560;13.374;2023-02-28T02:04:37;102607.50;;;0.70;81.27
67015;BME280;1033;52.560;13.374;2023-02-28T02:07:14;102612.53;;;0.75;81.27
67015;BME280;1033;52.560;13.374;2023-02-28T02:09:46;102613.69;;;0.71;81.39
67015;BME280;1033;52.560;13.374;2023-02-28T02:12:25;102611.75;;;0.73;81.32
67015;BME280;1033;52.560;13.374;2023-02-28T02:15:04;102601.66;;;0.78;80.53
67015;BME280;1033;52.560;13.374;2023-02-28T02:17:44;102612.19;;;0.67;81.33
67015;BME280;1033;52.560;13.374;2023-02-28T02:21:01;102604.34;;;0.64;81.25
67015;BME280;1033;52.560;13.374;2023-02-28T02:24:11;102612.06;;;0.40;82.31
67015;BME280;1033;52.560;13.374;2023-02-28T02:27:26;102608.75;;;0.36;83.22
67015;BME280;1033;52.560;13.374;2023-02-28T02:30:27;102607.03;;;0.21;83.13
67015;BME280;1033;52.560;13.374;2023-02-28T02:33:36;102608.06;;;0.05;83.96
67015;BME280;1033;52.560;13.374;2023-02-28T02:36:14;102610.44;;;0.09;85.15
67015;BME280;1033;52.560;13.374;2023-02-28T02:38:52;102611.38;;;0.08;86.26
67015;BME280;1033;52.560;13.374;2023-02-28T02:41:27;102610.94;;;-0.14;86.23
67015;BME280;1033;52.560;13.374;2023-02-28T02:44:13;102608.22;;;0.02;86.79
67015;BME280;1033;52.560;13.374;2023-02-28T02:46:46;102611.97;;;0.13;85.41
67015;BME280;1033;52.560;13.374;2023-02-28T02:49:21;102602.06;;;0.15;86.31
67015;BME280;1033;52.560;13.374;2023-02-28T02:52:02;102610.28;;;-0.18;85.99
67015;BME280;1033;52.560;13.374;2023-02-28T02:54:37;102611.75;;;0.02;86.67
67015;BME280;1033;52.560;13.374;2023-02-28T02:57:15;102611.72;;;-0.12;85.79
67015;BME280;1033;52.560;13.374;2023-02-28T02:59:49;102617.53;;;-0.20;86.93
67015;BME280;1033;52.560;13.374;2023-02-28T03:02:23;102610.59;;;-0.08;87.16
67015;BME280;1033;52.560;13.374;2023-02-28T03:04:59;102613.34;;;-0.10;86.44
67015;BME280;1033;52.560;13.374;2023-02-28T03:07:34;102620.69;;;-0.29;87.36
67015;BME280;1033;52.560;13.374;2023-02-28T03:10:33;102615.28;;;-0.27;88.51
67015;BME280;1033;52.560;13.374;2023-02-28T03:13:18;102616.34;;;-0.30;87.66
67015;BME280;1033;52.560;13.374;2023-02-28T03:16:04;102618.84;;;-0.43;88.19
67015;BME280;1033;52.560;13.374;2023-02-28T03:18:53;102614.78;;;-0.64;88.91
67015;BME280;1033;52.560;13.374;2023-02-28T03:21:37;102617.13;;;-0.73;89.73
67015;BME280;1033;52.560;13.374;2023-02-28T03:24:21;102628.50;;;-0.56;90.60
67015;BME280;1033;52.560;13.374;2023-02-28T03:27:03;102628.56;;;-0.57;90.28
67015;BME280;1033;52.560;13.374;2023-02-28T03:29:47;102627.31;;;-0.81;90.77
67015;BME280;1033;52.560;13.374;2023-02-28T03:32:28;102631.00;;;-0.84;91.46
67015;BME280;1033;52.560;13.374;2023-02-28T03:35:09;102623.13;;;-0.70;91.59
67015;BME280;1033;52.560;13.374;2023-02-28T03:37:43;102627.31;;;-0.66;91.85
67015;BME280;1033;52.560;13.374;2023-02-28T03:40:20;102629.63;;;-0.91;91.14
67015;BME280;1033;52.560;13.374;2023-02-28T03:42:55;102631.34;;;-1.06;91.76
67015;BME280;1033;52.560;13.374;2023-02-28T03:45:33;102629.81;;;-0.94;93.04
67015;BME280;1033;52.560;13.374;2023-02-28T03:48:11;102629.09;;;-0.82;93.11
67015;BME280;1033;52.560;13.374;2023-02-28T03:50:45;102629.72;;;-0.77;92.99
67015;BME280;1033;52.560;13.374;2023-02-28T03:53:24;102628.50;;;-0.87;92.59
67015;BME280;1033;52.560;13.374;2023-02-28T03:56:05;102628.09;;;-0.79;92.29
67015;BME280;1033;52.560;13.374;2023-02-28T03:58:53;102627.44;;;-0.83;92.19
67015;BME280;1033;52.560;13.374;2023-02-28T04:01:28;102628.97;;;-0.95;92.55
67015;BME280;1033;52.560;13.374;2023-02-28T04:04:01;102634.53;;;-0.99;92.75
67015;BME280;1033;52.560;13.374;2023-02-28T04:06:34;102628.69;;;-1.06;93.35
67015;BME280;1033;52.560;13.374;2023-02-28T04:09:09;102628.28;;;-0.98;93.64
67015;BME280;1033;52.560;13.374;2023-02-28T04:11:44;102633.50;;;-0.97;93.77
67015;BME280;1033;52.560;13.374;2023-02-28T04:14:16;102630.47;;;-1.06;93.34
67015;BME280;1033;52.560;13.374;2023-02-28T04:16:48;102626.53;;;-1.15;93.63
67015;BME280;1033;52.560;13.374;2023-02-28T04:19:20;102631.53;;;-1.09;94.50
67015;BME280;1033;52.560;13.374;2023-02-28T04:22:02;102631.53;;;-1.09;94.52
67015;BME280;1033;52.560;13.374;2023-02-28T04:24:39;102632.22;;;-1.05;94.42
67015;BME280;1033;52.560;13.374;2023-02-28T04:27:15;102634.09;;;-1.07;94.65
67015;BME280;1033;52.560;13.374;2023-02-28T04:29:46;102636.66;;;-1.06;94.29
67015;BME280;1033;52.560;13.374;2023-02-28T04:32:21;102639.56;;;-1.10;93.83
67015;BME280;1033;52.560;13.374;2023-02-28T04:34:54;102638.44;;;-1.06;94.39
67015;BME280;1033;52.560;13.374;2023-02-28T04:37:27;102651.31;;;-1.14;93.97
67015;BME280;1033;52.560;13.374;2023-02-28T04:40:04;102636.56;;;-1.20;93.87
67015;BME280;1033;52.560;13.374;2023-02-28T04:42:39;102636.81;;;-1.24;95.05
67015;BME280;1033;52.560;13.374;2023-02-28T04:45:12;102643.69;;;-1.20;94.58
67015;BME280;1033;52.560;13.374;2023-02-28T04:47:44;102641.97;;;-1.21;93.95
67015;BME280;1033;52.560;13.374;2023-02-28T04:50:16;102636.16;;;-1.12;94.88
67015;BME280;1033;52.560;13.374;2023-02-28T04:52:48;102645.41;;;-1.19;93.99
67015;BME280;1033;52.560;13.374;2023-02-28T04:55:20;102643.25;;;-1.28;94.84
67015;BME280;1033;52.560;13.374;2023-02-28T04:57:57;102641.09;;;-1.38;95.45
67015;BME280;1033;52.560;13.374;2023-02-28T05:00:28;102651.09;;;-1.43;95.56
67015;BME280;1033;52.560;13.374;2023-02-28T05:03:07;102652.53;;;-1.53;96.64
67015;BME280;1033;52.560;13.374;2023-02-28T05:05:43;102655.63;;;-1.45;96.44
67015;BME280;1033;52.560;13.374;2023-02-28T05:08:17;102659.44;;;-1.33;95.84
67015;BME280;1033;52.560;13.374;2023-02-28T05:10:49;102657.06;;;-1.55;96.27
67015;BME280;1033;52.560;13.374;2023-02-28T05:13:24;102652.28;;;-1.00;96.56
67015;BME280;1033;52.560;13.374;2023-02-28T05:16:04;102661.28;;;-1.02;95.76
67015;BME280;1033;52.560;13.374;2023-02-28T05:18:38;102654.91;;;-1.15;95.43
67015;BME280;1033;52.560;13.374;2023-02-28T05:21:26;102663.06;;;-1.18;95.43
67015;BME280;1033;52.560;13.374;2023-02-28T05:24:03;102664.38;;;-1.43;95.64
67015;BME280;1033;52.560;13.374;2023-02-28T05:26:39;102667.22;;;-1.63;95.67
67015;BME280;1033;52.560;13.374;2023-02-28T05:29:15;102673.28;;;-1.44;97.00
67015;BME280;1033;52.560;13.374;2023-02-28T05:31:53;102665.88;;;-1.54;96.62
67015;BME280;1033;52.560;13.374;2023-02-28T05:34:28;102671.91;;;-1.51;96.43
67015;BME280;1033;52.560;13.374;2023-02-28T05:36:59;102669.88;;;-1.63;96.63
67015;BME280;1033;52.560;13.374;2023-02-28T05:39:37;102672.22;;;-1.57;96.81
67015;BME280;1033;52.560;13.374;2023-02-28T05:42:11;102668.84;;;-1.43;96.13
67015;BME280;1033;52.560;13.374;2023-02-28T05:44:46;102677.84;;;-1.46;95.84
67015;BME280;1033;52.560;13.374;2023-02-28T05:47:18;102675.19;;;-1.46;96.12
67015;BME280;1033;52.560;13.374;2023-02-28T05:49:57;102677.72;;;-1.44;95.25
67015;BME280;1033;52.560;13.374;2023-02-28T05:52:30;102682.09;;;-1.43;95.08
67015;BME280;1033;52.560;13.374;2023-02-28T05:55:07;102681.00;;;-1.39;95.37
67015;BME280;1033;52.560;13.374;2023-02-28T05:57:44;102682.41;;;-1.32;95.23
67015;BME280;1033;52.560;13.374;2023-02-28T06:00:19;102689.38;;;-1.47;94.90
67015;BME280;1033;52.560;13.374;2023-02-28T06:02:55;102681.31;;;-1.45;94.85
67015;BME280;1033;52.560;13.374;2023-02-28T06:05:32;102687.84;;;-1.51;95.78
67015;BME280;1033;52.560;13.374;2023-02-28T06:08:06;102680.13;;;-1.55;95.70
67015;BME280;1033;52.560;13.374;2023-02-28T06:10:37;102691.25;;;-1.49;96.39
67015;BME280;1033;52.560;13.374;2023-02-28T06:13:10;102679.78;;;-1.49;96.08
67015;BME280;1033;52.560;13.374;2023-02-28T06:15:47;102693.91;;;-1.49;95.34
67015;BME280;1033;52.560;13.374;2023-02-28T06:18:19;102685.63;;;-1.43;95.88
67015;BME280;1033;52.560;13.374;2023-02-28T06:20:56;102691.13;;;-1.30;95.94
67015;BME280;1033;52.560;13.374;2023-02-28T06:23:30;102685.31;;;-1.37;96.22
67015;BME280;1033;52.560;13.374;2023-02-28T06:26:04;102699.34;;;-1.35;96.04
67015;BME280;1033;52.560;13.374;2023-02-28T06:28:36;102699.84;;;-1.44;95.61
67015;BME280;1033;52.560;13.374;2023-02-28T06:31:11;102699.59;;;-1.39;96.40
67015;BME280;1033;52.560;13.374;2023-02-28T06:33:45;102705.16;;;-1.44;96.08
67015;BME280;1033;52.560;13.374;2023-02-28T06:36:18;102711.50;;;-1.46;96.87
67015;BME280;1033;52.560;13.374;2023-02-28T06:39:00;102703.78;;;-1.35;96.05
67015;BME280;1033;52.560;13.374;2023-02-28T06:41:46;102717.56;;;-1.27;95.36
67015;BME280;1033;52.560;13.374;2023-02-28T06:48:04;102721.13;;;-1.28;95.10
67015;BME280;1033;52.560;13.374;2023-02-28T06:50:35;102720.22;;;-1.27;94.55
67015;BME280;1033;52.560;13.374;2023-02-28T06:53:10;102721.13;;;-1.28;94.79
67015;BME280;1033;52.560;13.374;2023-02-28T06:55:41;102726.66;;;-1.15;94.37
67015;BME280;1033;52.560;13.374;2023-02-28T06:58:15;102725.16;;;-0.88;93.11
67015;BME280;1033;52.560;13.374;2023-02-28T07:00:52;102729.97;;;-0.79;92.25
67015;BME280;1033;52.560;13.374;2023-02-28T07:03:27;102733.56;;;-0.80;92.27
67015;BME280;1033;52.560;13.374;2023-02-28T07:06:13;102729.38;;;-0.53;91.10
67015;BME280;1033;52.560;13.374;2023-02-28T07:08:50;102728.69;;;-0.40;90.32
67015;BME280;1033;52.560;13.374;2023-02-28T07:11:27;102726.72;;;-0.37;89.19
67015;BME280;1033;52.560;13.374;2023-02-28T07:14:01;102725.50;;;-0.31;89.47
67015;BME280;1033;52.560;13.374;2023-02-28T07:16:33;102723.03;;;-0.34;89.45
67015;BME280;1033;52.560;13.374;2023-02-28T07:19:17;102733.41;;;-0.30;89.78
67015;BME280;1033;52.560;13.374;2023-02-28T07:21:56;102726.69;;;-0.06;88.99
67015;BME280;1033;52.560;13.374;2023-02-28T07:24:29;102733.34;;;0.02;88.48
67015;BME280;1033;52.560;13.374;2023-02-28T07:27:00;102730.25;;;0.09;87.78
67015;BME280;1033;52.560;13.374;2023-02-28T07:29:33;102732.75;;;0.26;87.33
67015;BME280;1033;52.560;13.374;2023-02-28T07:32:04;102732.16;;;0.51;85.09
67015;BME280;1033;52.560;13.374;2023-02-28T07:34:41;102740.06;;;0.53;84.36
67015;BME280;1033;52.560;13.374;2023-02-28T07:37:12;102736.34;;;0.69;83.29
67015;BME280;1033;52.560;13.374;2023-02-28T07:39:53;102731.03;;;0.69;83.56
67015;BME280;1033;52.560;13.374;2023-02-28T07:42:27;102732.66;;;0.86;82.57
67015;BME280;1033;52.560;13.374;2023-02-28T07:45:16;102737.06;;;1.01;81.59
67015;BME280;1033;52.560;13.374;2023-02-28T07:47:51;102746.75;;;1.02;81.21
67015;BME280;1033;52.560;13.374;2023-02-28T07:50:26;102744.84;;;1.18;79.72
67015;BME280;1033;52.560;13.374;2023-02-28T07:53:00;102743.59;;;1.24;79.52
67015;BME280;1033;52.560;13.374;2023-02-28T07:55:54;102734.31;;;1.44;78.03
67015;BME280;1033;52.560;13.374;2023-02-28T07:58:27;102737.00;;;1.44;77.26
67015;BME280;1033;52.560;13.374;2023-02-28T08:01:11;102743.59;;;1.65;76.14
67015;BME280;1033;52.560;13.374;2023-02-28T08:03:45;102740.44;;;1.72;76.30
67015;BME280;1033;52.560;13.374;2023-02-28T08:06:27;102745.44;;;1.91;75.26
67015;BME280;1033;52.560;13.374;2023-02-28T08:08:59;102742.16;;;2.00;73.78
67015;BME280;1033;52.560;13.374;2023-02-28T08:11:32;102741.91;;;2.17;72.23
67015;BME280;1033;52.560;13.374;2023-02-28T08:14:04;102738.72;;;2.38;70.63
67015;BME280;1033;52.560;13.374;2023-02-28T08:16:41;102744.94;;;2.51;69.72
67015;BME280;1033;52.560;13.374;2023-02-28T08:19:12;102738.75;;;2.63;69.01
67015;BME280;1033;52.560;13.374;2023-02-28T08:21:47;102736.59;;;2.68;68.72
67015;BME280;1033;52.560;13.374;2023-02-28T08:24:28;102731.78;;;2.73;67.54
67015;BME280;1033;52.560;13.374;2023-02-28T08:27:00;102736.91;;;3.01;65.92
67015;BME280;1033;52.560;13.374;2023-02-28T08:29:36;102739.59;;;3.01;63.38
67015;BME280;1033;52.560;13.374;2023-02-28T08:32:13;102731.19;;;3.31;62.74
67015;BME280;1033;52.560;13.374;2023-02-28T08:34:57;102735.63;;;3.56;58.54
67015;BME280;1033;52.560;13.374;2023-02-28T08:37:37;102740.22;;;3.67;56.88
67015;BME280;1033;52.560;13.374;2023-02-28T08:44:23;102741.94;;;3.91;50.76
67015;BME280;1033;52.560;13.374;2023-02-28T08:47:10;102739.47;;;3.88;50.02
67015;BME280;1033;52.560;13.374;2023-02-28T08:49:44;102739.53;;;4.00;49.27
67015;BME280;1033;52.560;13.374;2023-02-28T08:52:20;102737.69;;;4.00;47.75
67015;BME280;1033;52.560;13.374;2023-02-28T08:54:53;102737.97;;;4.08;48.19
67015;BME280;1033;52.560;13.374;2023-02-28T08:57:26;102741.59;;;4.31;46.56
67015;BME280;1033;52.560;13.374;2023-02-28T09:00:00;102741.25;;;4.35;46.53
67015;BME280;1033;52.560;13.374;2023-02-28T09:06:03;102743.59;;;4.40;43.51
67015;BME280;1033;52.560;13.374;2023-02-28T09:08:37;102744.41;;;4.41;44.10
67015;BME280;1033;52.560;13.374;2023-02-28T09:11:21;102737.88;;;4.45;45.18
67015;BME280;1033;52.560;13.374;2023-02-28T09:13:58;102735.34;;;4.65;44.85
67015;BME280;1033;52.560;13.374;2023-02-28T09:16:41;102744.13;;;4.67;43.74
67015;BME280;1033;52.560;13.374;2023-02-28T09:19:16;102738.22;;;4.40;43.76
67015;BME280;1033;52.560;13.374;2023-02-28T09:21:48;102735.03;;;4.35;44.13
67015;BME280;1033;52.560;13.374;2023-02-28T09:24:20;102739.91;;;4.41;44.18
67015;BME280;1033;52.560;13.374;2023-02-28T09:26:54;102733.47;;;4.44;44.71
67015;BME280;1033;52.560;13.374;2023-02-28T09:29:35;102735.47;;;4.75;43.99
67015;BME280;1033;52.560;13.374;2023-02-28T09:32:06;102740.69;;;4.65;43.42
67015;BME280;1033;52.560;13.374;2023-02-28T09:34:38;102732.44;;;4.68;43.44
67015;BME280;1033;52.560;13.374;2023-02-28T09:37:10;102729.63;;;4.70;43.47
67015;BME280;1033;52.560;13.374;2023-02-28T09:39:42;102732.69;;;4.76;43.19
67015;BME280;1033;52.560;13.374;2023-02-28T09:42:24;102734.16;;;4.92;43.76
67015;BME280;1033;52.560;13.374;2023-02-28T09:45:11;102749.41;;;4.91;42.56
67015;BME280;1033;52.560;13.374;2023-02-28T09:47:47;102734.63;;;4.63;43.31
67015;BME280;1033;52.560;13.374;2023-02-28T09:50:30;102736.22;;;4.77;43.60
67015;BME280;1033;52.560;13.374;2023-02-28T09:53:11;102750.31;;;4.57;43.90
67015;BME280;1033;52.560;13.374;2023-02-28T09:55:50;102741.81;;;4.63;43.13
67015;BME280;1033;52.560;13.374;2023-02-28T09:58:32;102740.59;;;4.67;43.38
67015;BME280;1033;52.560;13.374;2023-02-28T10:04:44;102742.25;;;5.03;42.97
67015;BME280;1033;52.560;13.374;2023-02-28T10:11:00;102747.72;;;5.01;42.82
67015;BME280;1033;52.560;13.374;2023-02-28T10:13:49;102749.28;;;5.15;42.66
67015;BME280;1033;52.560;13.374;2023-02-28T10:16:30;102746.00;;;5.11;42.49
67015;BME280;1033;52.560;13.374;2023-02-28T10:19:05;102748.47;;;5.03;42.91
67015;BME280;1033;52.560;13.374;2023-02-28T10:21:45;102750.28;;;4.92;42.66
67015;BME280;1033;52.560;13.374;2023-02-28T10:24:21;102743.88;;;4.70;42.50
67015;BME280;1033;52.560;13.374;2023-02-28T10:26:59;102742.34;;;4.79;42.82
67015;BME280;1033;52.560;13.374;2023-02-28T10:29:34;102747.81;;;5.00;43.06
67015;BME280;1033;52.560;13.374;2023-02-28T10:32:06;102748.34;;;4.94;43.04
67015;BME280;1033;52.560;13.374;2023-02-28T10:34:39;102740.53;;;5.13;42.85
67015;BME280;1033;52.560;13.374;2023-02-28T10:41:05;102748.31;;;5.16;42.49
67015;BME280;1033;52.560;13.374;2023-02-28T10:43:42;102745.88;;;5.02;42.94
67015;BME280;1033;52.560;13.374;2023-02-28T10:46:21;102746.84;;;5.23;42.44
67015;BME280;1033;52.560;13.374;2023-02-28T10:49:05;102742.47;;;5.11;42.67
67015;BME280;1033;52.560;13.374;2023-02-28T10:51:40;102729.53;;;5.27;42.53
67015;BME280;1033;52.560;13.374;2023-02-28T10:54:22;102742.09;;;5.15;42.76
67015;BME280;1033;52.560;13.374;2023-02-28T10:57:17;102735.66;;;5.07;42.57
67015;BME280;1033;52.560;13.374;2023-02-28T10:59:52;102730.28;;;5.07;42.78
67015;BME280;1033;52.560;13.374;2023-02-28T11:02:37;102724.88;;;5.40;42.17
67015;BME280;1033;52.560;13.374;2023-02-28T11:05:29;102725.75;;;5.30;42.25
67015;BME280;1033;52.560;13.374;2023-02-28T11:08:06;102722.69;;;5.45;41.38
67015;BME280;1033;52.560;13.374;2023-02-28T11:10:53;102712.31;;;5.30;42.08
67015;BME280;1033;52.560;13.374;2023-02-28T11:13:31;102714.16;;;5.40;41.89
67015;BME280;1033;52.560;13.374;2023-02-28T11:16:05;102707.75;;;5.63;41.68
67015;BME280;1033;52.560;13.374;2023-02-28T11:18:46;102702.84;;;5.68;41.00
67015;BME280;1033;52.560;13.374;2023-02-28T11:21:24;102705.25;;;5.29;41.69
67015;BME280;1033;52.560;13.374;2023-02-28T11:24:03;102697.56;;;5.24;42.00
67015;BME280;1033;52.560;13.374;2023-02-28T11:26:43;102694.59;;;5.38;42.04
67015;BME280;1033;52.560;13.374;2023-02-28T11:29:20;102695.34;;;5.51;41.85
67015;BME280;1033;52.560;13.374;2023-02-28T11:32:12;102698.03;;;5.51;41.75
67015;BME280;1033;52.560;13.374;2023-02-28T11:35:02;102694.75;;;5.80;42.12
67015;BME280;1033;52.560;13.374;2023-02-28T11:37:36;102690.56;;;5.98;41.44
67015;BME280;1033;52.560;13.374;2023-02-28T11:40:13;102697.19;;;5.94;41.07
67015;BME280;1033;52.560;13.374;2023-02-28T11:43:05;102697.22;;;5.72;41.87
67015;BME280;1033;52.560;13.374;2023-02-28T11:45:47;102695.34;;;5.83;41.57
67015;BME280;1033;52.560;13.374;2023-02-28T11:48:23;102693.81;;;5.69;41.39
67015;BME280;1033;52.560;13.374;2023-02-28T11:51:11;102699.78;;;5.73;41.82
67015;BME280;1033;52.560;13.374;2023-02-28T11:57:03;102699.41;;;5.89;41.25
67015;BME280;1033;52.560;13.374;2023-02-28T11:59:51;102708.19;;;5.80;41.61
67015;BME280;1033;52.560;13.374;2023-02-28T12:02:29;102703.19;;;5.75;41.57
67015;BME280;1033;52.560;13.374;2023-02-28T12:05:23;102697.59;;;5.67;41.46
67015;BME280;1033;52.560;13.374;2023-02-28T12:08:06;102691.53;;;5.97;41.51
67015;BME280;1033;52.560;13.374;2023-02-28T12:10:53;102699.13;;;5.92;41.40
67015;BME280;1033;52.560;13.374;2023-02-28T12:13:33;102699.88;;;5.72;42.04
67015;BME280;1033;52.560;13.374;2023-02-28T12:19:14;102692.28;;;5.99;41.86
67015;BME280;1033;52.560;13.374;2023-02-28T12:25:21;102682.31;;;5.79;41.93
67015;BME280;1033;52.560;13.374;2023-02-28T12:27:58;102673.97;;;5.93;41.82
67015;BME280;1033;52.560;13.374;2023-02-28T12:30:33;102676.81;;;6.12;41.82
67015;BME280;1033;52.560;13.374;2023-02-28T12:33:07;102667.50;;;5.95;41.61
67015;BME280;1033;52.560;13.374;2023-02-28T12:35:49;102659.59;;;5.72;41.89
67015;BME280;1033;52.560;13.374;2023-02-28T12:38:28;102658.00;;;5.80;42.13
67015;BME280;1033;52.560;13.374;2023-02-28T12:41:02;102657.19;;;5.68;42.30
67015;BME280;1033;52.560;13.374;2023-02-28T12:43:39;102656.00;;;5.93;42.63
67015;BME280;1033;52.560;13.374;2023-02-28T12:46:16;102643.94;;;5.88;41.98
67015;BME280;1033;52.560;13.374;2023-02-28T12:52:25;102626.88;;;6.09;41.83
67015;BME280;1033;52.560;13.374;2023-02-28T12:55:05;102625.22;;;6.18;41.59
67015;BME280;1033;52.560;13.374;2023-02-28T12:57:49;102624.63;;;5.94;42.32
67015;BME280;1033;52.560;13.374;2023-02-28T13:00:25;102620.81;;;5.96;41.88
67015;BME280;1033;52.560;13.374;2023-02-28T13:03:20;102616.03;;;6.00;41.91
67015;BME280;1033;52.560;13.374;2023-02-28T13:06:20;102608.97;;;5.99;42.49
67015;BME280;1033;52.560;13.374;2023-02-28T13:09:08;102615.97;;;6.11;42.34
67015;BME280;1033;52.560;13.374;2023-02-28T13:11:56;102605.47;;;6.29;42.66
67015;BME280;1033;52.560;13.374;2023-02-28T13:14:35;102607.31;;;6.28;41.62
67015;BME280;1033;52.560;13.374;2023-02-28T13:17:14;102613.00;;;6.35;42.21
67015;BME280;1033;52.560;13.374;2023-02-28T13:19:58;102609.03;;;6.29;41.39
67015;BME280;1033;52.560;13.374;2023-02-28T13:22:40;102608.13;;;6.49;41.75
67015;BME280;1033;52.560;13.374;2023-02-28T13:32:42;102604.44;;;6.50;41.99
67015;BME280;1033;52.560;13.374;2023-02-28T13:35:37;102613.31;;;6.41;41.89
67015;BME280;1033;52.560;13.374;2023-02-28T13:38:25;102610.56;;;6.32;42.09
67015;BME280;1033;52.560;13.374;2023-02-28T13:44:18;102604.69;;;6.17;42.19
67015;BME280;1033;52.560;13.374;2023-02-28T13:47:23;102598.63;;;6.25;42.15
67015;BME280;1033;52.560;13.374;2023-02-28T13:50:29;102590.13;;;6.20;42.46
67015;BME280;1033;52.560;13.374;2023-02-28T13:56:27;102593.22;;;6.45;42.25
67015;BME280;1033;52.560;13.374;2023-02-28T13:59:13;102584.75;;;6.20;41.73
67015;BME280;1033;52.560;13.374;2023-02-28T14:02:01;102589.22;;;6.09;42.22
67015;BME280;1033;52.560;13.374;2023-02-28T14:04:57;102586.31;;;6.22;42.18
67015;BME280;1033;52.560;13.374;2023-02-28T14:07:38;102577.91;;;6.36;41.44
67015;BME280;1033;52.560;13.374;2023-02-28T14:10:26;102584.91;;;6.48;41.70
67015;BME280;1033;52.560;13.374;2023-02-28T14:13:11;102582.34;;;6.47;41.26
67015;BME280;1033;52.560;13.374;2023-02-28T14:15:57;102587.81;;;6.15;41.08
67015;BME280;1033;52.560;13.374;2023-02-28T14:18:32;102585.47;;;6.22;41.78
67015;BME280;1033;52.560;13.374;2023-02-28T14:21:19;102590.91;;;6.10;41.79
67015;BME280;1033;52.560;13.374;2023-02-28T14:24:26;102583.56;;;6.13;41.70
67015;BME280;1033;52.560;13.374;2023-02-28T14:27:26;102590.06;;;6.10;41.71
67015;BME280;1033;52.560;13.374;2023-02-28T14:30:43;102585.34;;;6.02;42.25
67015;BME280;1033;52.560;13.374;2023-02-28T14:33:27;102582.72;;;5.91;42.26
67015;BME280;1033;52.560;13.374;2023-02-28T14:36:16;102581.75;;;5.92;42.44
67015;BME280;1033;52.560;13.374;2023-02-28T14:38:52;102592.03;;;6.08;42.31
67015;BME280;1033;52.560;13.374;2023-02-28T14:41:45;102581.63;;;5.94;42.63
67015;BME280;1033;52.560;13.374;2023-02-28T14:44:19;102586.94;;;6.05;41.99
67015;BME280;1033;52.560;13.374;2023-02-28T14:46:55;102583.00;;;5.88;42.56
67015;BME280;1033;52.560;13.374;2023-02-28T14:49:28;102576.72;;;5.99;42.69